sensor_id;sensor_type;location;lat;lon;timestamp;P1;durP1;ratioP1;P2;durP2;ratioP2
50350;SDS011;36250;48.740;22.174;2022-09-09T00:01:07;7.82;;;7.15;;
50350;SDS011;36250;48.740;22.174;2022-09-09T00:06:52;8.68;;;7.38;;
50350;SDS011;36250;48.740;22.174;2022-09-09T00:09:29;7.45;;;6.80;;
50350;SDS011;36250;48.740;22.174;2022-09-09T00:12:02;8.55;;;7.78;;
50350;SDS011;36250;48.740;22.174;2022-09-09T00:14:51;7.82;;;7.03;;
50350;SDS011;36250;48.740;22.174;2022-09-09T00:17:31;7.50;;;6.80;;
50350;SDS011;36250;48.740;22.174;2022-09-09T00:22:30;8.82;;;6.80;;
50350;SDS011;36250;48.740;22.174;2022-09-09T00:27:46;7.68;;;7.00;;
50350;SDS011;36250;48.740;22.174;2022-09-09T00:30:14;8.95;;;7.28;;
50350;SDS011;36250;48.740;22.174;2022-09-09T00:32:43;8.55;;;7.85;;
50350;SDS011;36250;48.740;22.174;2022-09-09T00:37:34;8.67;;;7.87;;
50350;SDS011;36250;48.740;22.174;2022-09-09T00:40:01;10.20;;;9.25;;
50350;SDS011;36250;48.740;22.174;2022-09-09T00:42:33;10.90;;;9.90;;
50350;SDS011;36250;48.740;22.174;2022-09-09T00:48:10;11.75;;;10.75;;
50350;SDS011;36250;48.740;22.174;2022-09-09T00:55:50;12.95;;;11.65;;
50350;SDS011;36250;48.740;22.174;2022-09-09T00:58:25;13.05;;;11.95;;
50350;SDS011;36250;48.740;22.174;2022-09-09T01:00:54;13.57;;;11.80;;
50350;SDS011;36250;48.740;22.174;2022-09-09T01:11:25;11.52;;;10.55;;
50350;SDS011;36250;48.740;22.174;2022-09-09T01:16:38;13.23;;;11.95;;
50350;SDS011;36250;48.740;22.174;2022-09-09T01:19:06;13.52;;;11.95;;
50350;SDS011;36250;48.740;22.174;2022-09-09T01:21:50;12.43;;;11.32;;
50350;SDS011;36250;48.740;22.174;2022-09-09T01:25:15;12.18;;;10.93;;
50350;SDS011;36250;48.740;22.174;2022-09-09T01:27:33;11.73;;;10.43;;
50350;SDS011;36250;48.740;22.174;2022-09-09T01:30:01;10.30;;;9.35;;
50350;SDS011;36250;48.740;22.174;2022-09-09T01:32:40;12.40;;;11.30;;
50350;SDS011;36250;48.740;22.174;2022-09-09T01:35:09;10.00;;;9.20;;
50350;SDS011;36250;48.740;22.174;2022-09-09T01:37:38;10.75;;;9.65;;
50350;SDS011;36250;48.740;22.174;2022-09-09T01:40:03;11.07;;;10.10;;
50350;SDS011;36250;48.740;22.174;2022-09-09T01:42:29;10.88;;;9.98;;
50350;SDS011;36250;48.740;22.174;2022-09-09T01:44:54;10.32;;;9.52;;
50350;SDS011;36250;48.740;22.174;2022-09-09T01:47:20;13.98;;;11.68;;
50350;SDS011;36250;48.740;22.174;2022-09-09T01:49:45;12.20;;;11.02;;
50350;SDS011;36250;48.740;22.174;2022-09-09T01:52:10;13.75;;;12.55;;
50350;SDS011;36250;48.740;22.174;2022-09-09T01:54:36;14.55;;;12.57;;
50350;SDS011;36250;48.740;22.174;2022-09-09T01:57:21;15.00;;;13.68;;
50350;SDS011;36250;48.740;22.174;2022-09-09T02:02:32;15.23;;;13.82;;
50350;SDS011;36250;48.740;22.174;2022-09-09T02:05:07;15.45;;;13.95;;
50350;SDS011;36250;48.740;22.174;2022-09-09T02:07:58;15.40;;;13.95;;
50350;SDS011;36250;48.740;22.174;2022-09-09T02:10:44;16.23;;;14.63;;
50350;SDS011;36250;48.740;22.174;2022-09-09T02:13:16;16.02;;;14.48;;
50350;SDS011;36250;48.740;22.174;2022-09-09T02:18:47;15.93;;;14.45;;
50350;SDS011;36250;48.740;22.174;2022-09-09T02:21:16;15.75;;;14.18;;
50350;SDS011;36250;48.740;22.174;2022-09-09T02:23:43;16.77;;;15.27;;
50350;SDS011;36250;48.740;22.174;2022-09-09T02:26:12;16.63;;;15.02;;
50350;SDS011;36250;48.740;22.174;2022-09-09T02:28:44;16.63;;;15.10;;
50350;SDS011;36250;48.740;22.174;2022-09-09T02:31:11;17.10;;;15.48;;
50350;SDS011;36250;48.740;22.174;2022-09-09T02:33:39;16.65;;;14.88;;
50350;SDS011;36250;48.740;22.174;2022-09-09T02:36:08;16.77;;;15.18;;
50350;SDS011;36250;48.740;22.174;2022-09-09T02:38:38;17.73;;;15.50;;
50350;SDS011;36250;48.740;22.174;2022-09-09T02:41:08;16.98;;;15.38;;
50350;SDS011;36250;48.740;22.174;2022-09-09T02:43:34;17.58;;;15.85;;
50350;SDS011;36250;48.740;22.174;2022-09-09T02:46:03;17.25;;;15.65;;
50350;SDS011;36250;48.740;22.174;2022-09-09T02:48:38;18.13;;;16.40;;
50350;SDS011;36250;48.740;22.174;2022-09-09T02:51:08;19.45;;;17.38;;
50350;SDS011;36250;48.740;22.174;2022-09-09T02:53:49;20.65;;;18.83;;
50350;SDS011;36250;48.740;22.174;2022-09-09T02:56:22;20.48;;;18.48;;
50350;SDS011;36250;48.740;22.174;2022-09-09T02:58:50;21.45;;;19.40;;
50350;SDS011;36250;48.740;22.174;2022-09-09T03:01:16;23.30;;;20.85;;
50350;SDS011;36250;48.740;22.174;2022-09-09T03:03:42;23.25;;;21.10;;
50350;SDS011;36250;48.740;22.174;2022-09-09T03:06:09;24.17;;;21.92;;
50350;SDS011;36250;48.740;22.174;2022-09-09T03:08:36;23.02;;;21.00;;
50350;SDS011;36250;48.740;22.174;2022-09-09T03:11:02;21.98;;;19.90;;
50350;SDS011;36250;48.740;22.174;2022-09-09T03:13:28;21.45;;;19.52;;
50350;SDS011;36250;48.740;22.174;2022-09-09T03:15:53;21.92;;;19.83;;
50350;SDS011;36250;48.740;22.174;2022-09-09T03:18:18;21.80;;;19.63;;
50350;SDS011;36250;48.740;22.174;2022-09-09T03:20:44;20.65;;;18.85;;
50350;SDS011;36250;48.740;22.174;2022-09-09T03:23:13;21.42;;;19.33;;
50350;SDS011;36250;48.740;22.174;2022-09-09T03:25:38;20.42;;;18.55;;
50350;SDS011;36250;48.740;22.174;2022-09-09T03:28:04;20.88;;;18.98;;
50350;SDS011;36250;48.740;22.174;2022-09-09T03:30:29;20.58;;;18.50;;
50350;SDS011;36250;48.740;22.174;2022-09-09T03:32:55;20.52;;;18.55;;
50350;SDS011;36250;48.740;22.174;2022-09-09T03:35:21;20.67;;;18.75;;
50350;SDS011;36250;48.740;22.174;2022-09-09T03:37:46;20.70;;;18.58;;
50350;SDS011;36250;48.740;22.174;2022-09-09T03:40:12;18.05;;;16.15;;
50350;SDS011;36250;48.740;22.174;2022-09-09T03:42:38;19.98;;;18.05;;
50350;SDS011;36250;48.740;22.174;2022-09-09T03:45:04;20.02;;;17.92;;
50350;SDS011;36250;48.740;22.174;2022-09-09T03:47:32;19.77;;;17.65;;
50350;SDS011;36250;48.740;22.174;2022-09-09T03:49:58;19.92;;;17.98;;
50350;SDS011;36250;48.740;22.174;2022-09-09T03:52:23;19.58;;;17.67;;
50350;SDS011;36250;48.740;22.174;2022-09-09T03:54:51;20.15;;;18.10;;
50350;SDS011;36250;48.740;22.174;2022-09-09T03:57:17;20.20;;;18.40;;
50350;SDS011;36250;48.740;22.174;2022-09-09T03:59:43;19.45;;;17.55;;
50350;SDS011;36250;48.740;22.174;2022-09-09T04:02:09;21.08;;;18.98;;
50350;SDS011;36250;48.740;22.174;2022-09-09T04:04:35;21.77;;;19.52;;
50350;SDS011;36250;48.740;22.174;2022-09-09T04:07:00;19.52;;;17.75;;
50350;SDS011;36250;48.740;22.174;2022-09-09T04:09:26;20.58;;;18.50;;
50350;SDS011;36250;48.740;22.174;2022-09-09T04:11:51;21.33;;;19.38;;
50350;SDS011;36250;48.740;22.174;2022-09-09T04:14:18;21.35;;;19.23;;
50350;SDS011;36250;48.740;22.174;2022-09-09T04:16:43;22.35;;;20.05;;
50350;SDS011;36250;48.740;22.174;2022-09-09T04:19:09;21.40;;;19.42;;
50350;SDS011;36250;48.740;22.174;2022-09-09T04:21:37;26.85;;;21.15;;
50350;SDS011;36250;48.740;22.174;2022-09-09T04:24:05;27.58;;;19.88;;
50350;SDS011;36250;48.740;22.174;2022-09-09T04:26:30;22.88;;;20.02;;
50350;SDS011;36250;48.740;22.174;2022-09-09T04:28:56;23.00;;;20.58;;
50350;SDS011;36250;48.740;22.174;2022-09-09T04:31:21;22.58;;;20.00;;
50350;SDS011;36250;48.740;22.174;2022-09-09T04:33:50;22.45;;;20.10;;
50350;SDS011;36250;48.740;22.174;2022-09-09T04:36:16;21.60;;;19.50;;
50350;SDS011;36250;48.740;22.174;2022-09-09T04:38:44;19.13;;;17.23;;
50350;SDS011;36250;48.740;22.174;2022-09-09T04:41:10;20.50;;;18.52;;
50350;SDS011;36250;48.740;22.174;2022-09-09T04:43:36;19.92;;;18.10;;
50350;SDS011;36250;48.740;22.174;2022-09-09T04:46:02;21.65;;;19.17;;
50350;SDS011;36250;48.740;22.174;2022-09-09T04:48:27;20.42;;;18.60;;
50350;SDS011;36250;48.740;22.174;2022-09-09T04:51:14;21.63;;;19.42;;
50350;SDS011;36250;48.740;22.174;2022-09-09T04:53:39;22.17;;;20.08;;
50350;SDS011;36250;48.740;22.174;2022-09-09T04:56:08;22.70;;;20.42;;
50350;SDS011;36250;48.740;22.174;2022-09-09T04:58:35;20.80;;;18.70;;
50350;SDS011;36250;48.740;22.174;2022-09-09T05:03:31;23.00;;;20.55;;
50350;SDS011;36250;48.740;22.174;2022-09-09T05:06:07;21.10;;;19.05;;
50350;SDS011;36250;48.740;22.174;2022-09-09T05:08:35;19.80;;;17.85;;
50350;SDS011;36250;48.740;22.174;2022-09-09T05:11:02;19.80;;;18.00;;
50350;SDS011;36250;48.740;22.174;2022-09-09T05:13:28;20.60;;;18.73;;
50350;SDS011;36250;48.740;22.174;2022-09-09T05:15:54;19.27;;;16.88;;
50350;SDS011;36250;48.740;22.174;2022-09-09T05:18:20;19.00;;;17.25;;
50350;SDS011;36250;48.740;22.174;2022-09-09T05:20:46;19.05;;;17.15;;
50350;SDS011;36250;48.740;22.174;2022-09-09T05:23:11;19.23;;;17.33;;
50350;SDS011;36250;48.740;22.174;2022-09-09T05:25:38;18.80;;;16.88;;
50350;SDS011;36250;48.740;22.174;2022-09-09T05:28:03;18.20;;;16.50;;
50350;SDS011;36250;48.740;22.174;2022-09-09T05:30:29;17.92;;;16.00;;
50350;SDS011;36250;48.740;22.174;2022-09-09T05:32:57;18.40;;;16.45;;
50350;SDS011;36250;48.740;22.174;2022-09-09T05:35:22;16.48;;;15.07;;
50350;SDS011;36250;48.740;22.174;2022-09-09T05:37:48;16.83;;;15.02;;
50350;SDS011;36250;48.740;22.174;2022-09-09T05:40:13;17.25;;;15.30;;
50350;SDS011;36250;48.740;22.174;2022-09-09T05:42:39;17.38;;;14.52;;
50350;SDS011;36250;48.740;22.174;2022-09-09T05:45:05;16.67;;;14.75;;
50350;SDS011;36250;48.740;22.174;2022-09-09T05:47:32;15.32;;;13.77;;
50350;SDS011;36250;48.740;22.174;2022-09-09T05:49:58;15.18;;;13.73;;
50350;SDS011;36250;48.740;22.174;2022-09-09T05:52:23;15.82;;;14.23;;
50350;SDS011;36250;48.740;22.174;2022-09-09T05:54:50;14.55;;;13.15;;
50350;SDS011;36250;48.740;22.174;2022-09-09T05:57:16;14.98;;;13.45;;
50350;SDS011;36250;48.740;22.174;2022-09-09T05:59:42;14.02;;;12.73;;
50350;SDS011;36250;48.740;22.174;2022-09-09T06:02:08;14.48;;;12.95;;
50350;SDS011;36250;48.740;22.174;2022-09-09T06:04:33;15.98;;;12.88;;
50350;SDS011;36250;48.740;22.174;2022-09-09T06:06:59;14.82;;;13.18;;
50350;SDS011;36250;48.740;22.174;2022-09-09T06:09:24;14.50;;;12.93;;
50350;SDS011;36250;48.740;22.174;2022-09-09T06:11:50;16.77;;;12.63;;
50350;SDS011;36250;48.740;22.174;2022-09-09T06:14:15;15.73;;;12.52;;
50350;SDS011;36250;48.740;22.174;2022-09-09T06:16:42;12.27;;;11.10;;
50350;SDS011;36250;48.740;22.174;2022-09-09T06:19:09;12.15;;;10.95;;
50350;SDS011;36250;48.740;22.174;2022-09-09T06:21:35;11.85;;;10.65;;
50350;SDS011;36250;48.740;22.174;2022-09-09T06:24:02;11.75;;;10.73;;
50350;SDS011;36250;48.740;22.174;2022-09-09T06:26:32;11.70;;;10.57;;
50350;SDS011;36250;48.740;22.174;2022-09-09T06:28:59;10.73;;;9.82;;
50350;SDS011;36250;48.740;22.174;2022-09-09T06:31:26;10.70;;;9.80;;
50350;SDS011;36250;48.740;22.174;2022-09-09T06:33:55;11.02;;;10.02;;
50350;SDS011;36250;48.740;22.174;2022-09-09T06:36:24;10.35;;;9.30;;
50350;SDS011;36250;48.740;22.174;2022-09-09T06:38:51;28.23;;;10.23;;
50350;SDS011;36250;48.740;22.174;2022-09-09T06:41:17;10.82;;;9.73;;
50350;SDS011;36250;48.740;22.174;2022-09-09T06:43:44;12.48;;;9.52;;
50350;SDS011;36250;48.740;22.174;2022-09-09T06:46:11;11.40;;;9.50;;
50350;SDS011;36250;48.740;22.174;2022-09-09T06:48:41;12.50;;;10.60;;
50350;SDS011;36250;48.740;22.174;2022-09-09T06:51:19;11.27;;;10.10;;
50350;SDS011;36250;48.740;22.174;2022-09-09T06:53:46;13.15;;;10.65;;
50350;SDS011;36250;48.740;22.174;2022-09-09T06:56:19;10.00;;;9.07;;
50350;SDS011;36250;48.740;22.174;2022-09-09T06:58:50;10.85;;;9.75;;
50350;SDS011;36250;48.740;22.174;2022-09-09T07:01:17;12.05;;;10.50;;
50350;SDS011;36250;48.740;22.174;2022-09-09T07:03:45;11.13;;;9.95;;
50350;SDS011;36250;48.740;22.174;2022-09-09T07:06:16;10.57;;;9.52;;
50350;SDS011;36250;48.740;22.174;2022-09-09T07:08:43;11.18;;;9.18;;
50350;SDS011;36250;48.740;22.174;2022-09-09T07:11:13;10.15;;;8.77;;
50350;SDS011;36250;48.740;22.174;2022-09-09T07:13:38;14.32;;;8.70;;
50350;SDS011;36250;48.740;22.174;2022-09-09T07:16:04;9.75;;;8.88;;
50350;SDS011;36250;48.740;22.174;2022-09-09T07:18:29;9.52;;;8.63;;
50350;SDS011;36250;48.740;22.174;2022-09-09T07:20:55;9.00;;;8.27;;
50350;SDS011;36250;48.740;22.174;2022-09-09T07:23:30;8.95;;;8.15;;
50350;SDS011;36250;48.740;22.174;2022-09-09T07:25:56;9.90;;;8.90;;
50350;SDS011;36250;48.740;22.174;2022-09-09T07:28:22;9.40;;;8.50;;
50350;SDS011;36250;48.740;22.174;2022-09-09T07:30:55;10.73;;;9.60;;
50350;SDS011;36250;48.740;22.174;2022-09-09T07:33:22;10.25;;;8.90;;
50350;SDS011;36250;48.740;22.174;2022-09-09T07:35:48;10.88;;;9.25;;
50350;SDS011;36250;48.740;22.174;2022-09-09T07:38:14;10.30;;;9.50;;
50350;SDS011;36250;48.740;22.174;2022-09-09T07:40:40;11.25;;;9.82;;
50350;SDS011;36250;48.740;22.174;2022-09-09T07:43:05;10.10;;;9.10;;
50350;SDS011;36250;48.740;22.174;2022-09-09T07:45:31;11.40;;;8.65;;
50350;SDS011;36250;48.740;22.174;2022-09-09T07:47:58;10.02;;;9.13;;
50350;SDS011;36250;48.740;22.174;2022-09-09T07:50:23;11.95;;;9.00;;
50350;SDS011;36250;48.740;22.174;2022-09-09T07:52:53;10.00;;;9.02;;
50350;SDS011;36250;48.740;22.174;2022-09-09T07:55:19;10.63;;;9.63;;
50350;SDS011;36250;48.740;22.174;2022-09-09T07:57:50;10.90;;;9.80;;
50350;SDS011;36250;48.740;22.174;2022-09-09T08:00:16;11.20;;;10.20;;
50350;SDS011;36250;48.740;22.174;2022-09-09T08:02:41;11.18;;;10.07;;
50350;SDS011;36250;48.740;22.174;2022-09-09T08:05:07;12.70;;;9.07;;
50350;SDS011;36250;48.740;22.174;2022-09-09T08:07:32;11.13;;;10.00;;
50350;SDS011;36250;48.740;22.174;2022-09-09T08:09:57;10.95;;;10.02;;
50350;SDS011;36250;48.740;22.174;2022-09-09T08:12:23;10.35;;;9.32;;
50350;SDS011;36250;48.740;22.174;2022-09-09T08:14:48;11.07;;;9.90;;
50350;SDS011;36250;48.740;22.174;2022-09-09T08:17:14;15.98;;;10.82;;
50350;SDS011;36250;48.740;22.174;2022-09-09T08:19:39;12.05;;;10.95;;
50350;SDS011;36250;48.740;22.174;2022-09-09T08:22:05;11.93;;;10.88;;
50350;SDS011;36250;48.740;22.174;2022-09-09T08:24:30;12.55;;;11.35;;
50350;SDS011;36250;48.740;22.174;2022-09-09T08:26:55;12.15;;;10.98;;
50350;SDS011;36250;48.740;22.174;2022-09-09T08:29:21;14.48;;;10.90;;
50350;SDS011;36250;48.740;22.174;2022-09-09T08:31:51;11.13;;;10.10;;
50350;SDS011;36250;48.740;22.174;2022-09-09T08:34:19;11.23;;;10.13;;
50350;SDS011;36250;48.740;22.174;2022-09-09T08:36:45;12.23;;;9.48;;
50350;SDS011;36250;48.740;22.174;2022-09-09T08:39:13;12.73;;;11.52;;
50350;SDS011;36250;48.740;22.174;2022-09-09T08:52:39;11.75;;;10.50;;
50350;SDS011;36250;48.740;22.174;2022-09-09T08:58:14;9.75;;;8.35;;
50350;SDS011;36250;48.740;22.174;2022-09-09T09:11:39;8.20;;;7.40;;
50350;SDS011;36250;48.740;22.174;2022-09-09T09:14:15;6.95;;;6.35;;
50350;SDS011;36250;48.740;22.174;2022-09-09T09:19:28;5.40;;;5.00;;
50350;SDS011;36250;48.740;22.174;2022-09-09T09:22:01;5.22;;;4.82;;
50350;SDS011;36250;48.740;22.174;2022-09-09T09:27:21;5.25;;;4.82;;
50350;SDS011;36250;48.740;22.174;2022-09-09T09:30:16;6.07;;;5.55;;
50350;SDS011;36250;48.740;22.174;2022-09-09T09:32:47;5.50;;;5.05;;
50350;SDS011;36250;48.740;22.174;2022-09-09T09:35:17;6.38;;;5.78;;
50350;SDS011;36250;48.740;22.174;2022-09-09T09:37:43;5.85;;;5.25;;
50350;SDS011;36250;48.740;22.174;2022-09-09T09:40:16;6.05;;;5.45;;
50350;SDS011;36250;48.740;22.174;2022-09-09T09:45:28;6.30;;;5.80;;
50350;SDS011;36250;48.740;22.174;2022-09-09T09:48:10;6.47;;;5.97;;
50350;SDS011;36250;48.740;22.174;2022-09-09T09:50:56;15.75;;;14.45;;
50350;SDS011;36250;48.740;22.174;2022-09-09T09:53:30;8.07;;;7.38;;
50350;SDS011;36250;48.740;22.174;2022-09-09T09:56:10;5.03;;;4.63;;
50350;SDS011;36250;48.740;22.174;2022-09-09T09:58:48;5.72;;;5.32;;
50350;SDS011;36250;48.740;22.174;2022-09-09T10:03:58;4.50;;;4.20;;
50350;SDS011;36250;48.740;22.174;2022-09-09T10:06:32;4.07;;;3.85;;
50350;SDS011;36250;48.740;22.174;2022-09-09T10:09:03;4.72;;;4.43;;
50350;SDS011;36250;48.740;22.174;2022-09-09T10:14:21;4.82;;;4.43;;
50350;SDS011;36250;48.740;22.174;2022-09-09T10:17:08;5.55;;;3.88;;
50350;SDS011;36250;48.740;22.174;2022-09-09T10:19:58;4.13;;;3.83;;
50350;SDS011;36250;48.740;22.174;2022-09-09T10:22:26;4.20;;;3.80;;
50350;SDS011;36250;48.740;22.174;2022-09-09T10:30:18;3.53;;;3.33;;
50350;SDS011;36250;48.740;22.174;2022-09-09T10:38:11;6.25;;;3.00;;
50350;SDS011;36250;48.740;22.174;2022-09-09T10:43:17;1.58;;;1.48;;
50350;SDS011;36250;48.740;22.174;2022-09-09T10:55:28;2.05;;;1.95;;
50350;SDS011;36250;48.740;22.174;2022-09-09T10:59:57;2.08;;;1.98;;
50350;SDS011;36250;48.740;22.174;2022-09-09T11:02:30;1.88;;;1.77;;
50350;SDS011;36250;48.740;22.174;2022-09-09T11:05:01;2.38;;;1.60;;
50350;SDS011;36250;48.740;22.174;2022-09-09T11:07:35;2.50;;;1.73;;
50350;SDS011;36250;48.740;22.174;2022-09-09T11:10:07;2.67;;;2.58;;
50350;SDS011;36250;48.740;22.174;2022-09-09T11:12:53;3.08;;;2.88;;
50350;SDS011;36250;48.740;22.174;2022-09-09T11:15:28;5.05;;;3.42;;
50350;SDS011;36250;48.740;22.174;2022-09-09T11:18:01;4.57;;;4.18;;
50350;SDS011;36250;48.740;22.174;2022-09-09T11:20:29;5.85;;;5.35;;
50350;SDS011;36250;48.740;22.174;2022-09-09T11:23:11;5.40;;;5.03;;
50350;SDS011;36250;48.740;22.174;2022-09-09T11:25:45;6.03;;;5.25;;
50350;SDS011;36250;48.740;22.174;2022-09-09T11:38:51;6.60;;;6.10;;
50350;SDS011;36250;48.740;22.174;2022-09-09T11:41:18;6.50;;;5.95;;
50350;SDS011;36250;48.740;22.174;2022-09-09T11:46:13;3.80;;;3.50;;
50350;SDS011;36250;48.740;22.174;2022-09-09T11:48:46;2.38;;;2.28;;
50350;SDS011;36250;48.740;22.174;2022-09-09T11:57:01;0.80;;;0.80;;
50350;SDS011;36250;48.740;22.174;2022-09-09T11:59:25;0.63;;;0.60;;
50350;SDS011;36250;48.740;22.174;2022-09-09T12:02:02;0.50;;;0.50;;
50350;SDS011;36250;48.740;22.174;2022-09-09T12:04:38;0.65;;;0.65;;
50350;SDS011;36250;48.740;22.174;2022-09-09T12:09:43;1.85;;;0.82;;
50350;SDS011;36250;48.740;22.174;2022-09-09T12:12:30;0.65;;;0.65;;
50350;SDS011;36250;48.740;22.174;2022-09-09T12:17:50;1.05;;;0.80;;
50350;SDS011;36250;48.740;22.174;2022-09-09T12:20:31;0.90;;;0.80;;
50350;SDS011;36250;48.740;22.174;2022-09-09T12:23:17;0.98;;;0.63;;
50350;SDS011;36250;48.740;22.174;2022-09-09T12:31:25;1.50;;;0.73;;
50350;SDS011;36250;48.740;22.174;2022-09-09T12:34:09;0.80;;;0.80;;
50350;SDS011;36250;48.740;22.174;2022-09-09T12:36:38;0.73;;;0.73;;
50350;SDS011;36250;48.740;22.174;2022-09-09T12:39:10;1.50;;;1.02;;
50350;SDS011;36250;48.740;22.174;2022-09-09T12:41:50;0.73;;;0.73;;
50350;SDS011;36250;48.740;22.174;2022-09-09T12:44:19;1.00;;;1.00;;
50350;SDS011;36250;48.740;22.174;2022-09-09T12:46:45;1.60;;;0.80;;
50350;SDS011;36250;48.740;22.174;2022-09-09T12:49:26;1.55;;;1.45;;
50350;SDS011;36250;48.740;22.174;2022-09-09T12:52:04;2.20;;;1.00;;
50350;SDS011;36250;48.740;22.174;2022-09-09T12:54:35;1.77;;;0.90;;
50350;SDS011;36250;48.740;22.174;2022-09-09T12:57:02;1.10;;;1.00;;
50350;SDS011;36250;48.740;22.174;2022-09-09T12:59:35;1.70;;;1.00;;
50350;SDS011;36250;48.740;22.174;2022-09-09T13:02:02;1.45;;;1.10;;
50350;SDS011;36250;48.740;22.174;2022-09-09T13:04:50;1.25;;;1.17;;
50350;SDS011;36250;48.740;22.174;2022-09-09T13:07:16;1.05;;;0.93;;
50350;SDS011;36250;48.740;22.174;2022-09-09T13:09:45;1.10;;;1.00;;
50350;SDS011;36250;48.740;22.174;2022-09-09T13:12:15;1.20;;;1.10;;
50350;SDS011;36250;48.740;22.174;2022-09-09T13:14:43;1.50;;;1.00;;
50350;SDS011;36250;48.740;22.174;2022-09-09T13:17:15;1.10;;;1.05;;
50350;SDS011;36250;48.740;22.174;2022-09-09T13:19:44;1.63;;;1.05;;
50350;SDS011;36250;48.740;22.174;2022-09-09T13:22:21;0.77;;;0.77;;
50350;SDS011;36250;48.740;22.174;2022-09-09T13:27:37;0.70;;;0.70;;
50350;SDS011;36250;48.740;22.174;2022-09-09T13:30:21;2.40;;;1.23;;
50350;SDS011;36250;48.740;22.174;2022-09-09T13:35:47;1.27;;;0.85;;
50350;SDS011;36250;48.740;22.174;2022-09-09T13:38:15;0.70;;;0.70;;
50350;SDS011;36250;48.740;22.174;2022-09-09T13:43:21;1.02;;;0.60;;
50350;SDS011;36250;48.740;22.174;2022-09-09T13:45:57;0.70;;;0.70;;
50350;SDS011;36250;48.740;22.174;2022-09-09T13:48:25;1.85;;;0.50;;
50350;SDS011;36250;48.740;22.174;2022-09-09T13:50:58;2.15;;;0.73;;
50350;SDS011;36250;48.740;22.174;2022-09-09T13:53:25;0.50;;;0.50;;
50350;SDS011;36250;48.740;22.174;2022-09-09T13:55:50;1.00;;;0.60;;
50350;SDS011;36250;48.740;22.174;2022-09-09T13:58:17;0.50;;;0.50;;
50350;SDS011;36250;48.740;22.174;2022-09-09T14:00:47;4.70;;;0.70;;
50350;SDS011;36250;48.740;22.174;2022-09-09T14:03:14;0.75;;;0.52;;
50350;SDS011;36250;48.740;22.174;2022-09-09T14:05:40;1.65;;;0.60;;
50350;SDS011;36250;48.740;22.174;2022-09-09T14:08:07;0.70;;;0.70;;
50350;SDS011;36250;48.740;22.174;2022-09-09T14:10:38;1.00;;;0.60;;
50350;SDS011;36250;48.740;22.174;2022-09-09T14:13:03;1.13;;;1.02;;
50350;SDS011;36250;48.740;22.174;2022-09-09T14:15:29;1.27;;;0.93;;
50350;SDS011;36250;48.740;22.174;2022-09-09T14:17:54;1.00;;;1.00;;
50350;SDS011;36250;48.740;22.174;2022-09-09T14:20:20;1.75;;;1.08;;
50350;SDS011;36250;48.740;22.174;2022-09-09T14:22:45;1.58;;;1.00;;
50350;SDS011;36250;48.740;22.174;2022-09-09T14:25:11;1.13;;;0.82;;
50350;SDS011;36250;48.740;22.174;2022-09-09T14:27:38;0.80;;;0.80;;
50350;SDS011;36250;48.740;22.174;2022-09-09T14:30:04;2.53;;;1.08;;
50350;SDS011;36250;48.740;22.174;2022-09-09T14:32:30;1.65;;;1.13;;
50350;SDS011;36250;48.740;22.174;2022-09-09T14:34:55;2.70;;;1.30;;
50350;SDS011;36250;48.740;22.174;2022-09-09T14:37:21;5.72;;;1.60;;
50350;SDS011;36250;48.740;22.174;2022-09-09T14:39:46;1.33;;;1.23;;
50350;SDS011;36250;48.740;22.174;2022-09-09T14:42:12;1.10;;;1.10;;
50350;SDS011;36250;48.740;22.174;2022-09-09T14:44:39;1.55;;;1.30;;
50350;SDS011;36250;48.740;22.174;2022-09-09T14:47:05;1.48;;;1.38;;
50350;SDS011;36250;48.740;22.174;2022-09-09T14:49:33;3.13;;;1.38;;
50350;SDS011;36250;48.740;22.174;2022-09-09T14:51:58;1.55;;;1.45;;
50350;SDS011;36250;48.740;22.174;2022-09-09T14:54:24;1.95;;;1.30;;
50350;SDS011;36250;48.740;22.174;2022-09-09T14:56:49;1.55;;;1.45;;
50350;SDS011;36250;48.740;22.174;2022-09-09T14:59:14;1.60;;;1.50;;
50350;SDS011;36250;48.740;22.174;2022-09-09T15:01:40;2.75;;;1.33;;
50350;SDS011;36250;48.740;22.174;2022-09-09T15:04:06;1.35;;;1.25;;
50350;SDS011;36250;48.740;22.174;2022-09-09T15:06:32;1.50;;;1.40;;
50350;SDS011;36250;48.740;22.174;2022-09-09T15:08:59;1.23;;;1.20;;
50350;SDS011;36250;48.740;22.174;2022-09-09T15:11:26;1.17;;;1.08;;
50350;SDS011;36250;48.740;22.174;2022-09-09T15:13:53;2.08;;;1.40;;
50350;SDS011;36250;48.740;22.174;2022-09-09T15:16:20;2.90;;;1.10;;
50350;SDS011;36250;48.740;22.174;2022-09-09T15:18:49;1.35;;;0.98;;
50350;SDS011;36250;48.740;22.174;2022-09-09T15:21:17;3.83;;;1.27;;
50350;SDS011;36250;48.740;22.174;2022-09-09T15:23:44;1.45;;;1.35;;
50350;SDS011;36250;48.740;22.174;2022-09-09T15:26:11;1.92;;;1.17;;
50350;SDS011;36250;48.740;22.174;2022-09-09T15:28:39;2.10;;;1.40;;
50350;SDS011;36250;48.740;22.174;2022-09-09T15:31:06;5.00;;;1.38;;
50350;SDS011;36250;48.740;22.174;2022-09-09T15:33:34;1.30;;;1.30;;
50350;SDS011;36250;48.740;22.174;2022-09-09T15:36:12;2.60;;;1.45;;
50350;SDS011;36250;48.740;22.174;2022-09-09T15:38:41;1.27;;;1.17;;
50350;SDS011;36250;48.740;22.174;2022-09-09T15:41:07;2.47;;;1.13;;
50350;SDS011;36250;48.740;22.174;2022-09-09T15:43:32;1.45;;;1.10;;
50350;SDS011;36250;48.740;22.174;2022-09-09T15:45:58;1.13;;;1.10;;
50350;SDS011;36250;48.740;22.174;2022-09-09T15:48:33;1.55;;;1.20;;
50350;SDS011;36250;48.740;22.174;2022-09-09T15:51:04;2.00;;;0.82;;
50350;SDS011;36250;48.740;22.174;2022-09-09T15:53:30;1.13;;;0.90;;
50350;SDS011;36250;48.740;22.174;2022-09-09T15:55:57;0.90;;;0.90;;
50350;SDS011;36250;48.740;22.174;2022-09-09T15:58:23;1.40;;;0.90;;
50350;SDS011;36250;48.740;22.174;2022-09-09T16:00:48;2.20;;;1.23;;
50350;SDS011;36250;48.740;22.174;2022-09-09T16:03:13;1.27;;;1.20;;
50350;SDS011;36250;48.740;22.174;2022-09-09T16:05:39;1.75;;;1.08;;
50350;SDS011;36250;48.740;22.174;2022-09-09T16:08:05;1.52;;;1.20;;
50350;SDS011;36250;48.740;22.174;2022-09-09T16:10:30;1.02;;;1.02;;
50350;SDS011;36250;48.740;22.174;2022-09-09T16:12:55;3.25;;;1.10;;
50350;SDS011;36250;48.740;22.174;2022-09-09T16:15:21;1.92;;;1.10;;
50350;SDS011;36250;48.740;22.174;2022-09-09T16:17:48;2.00;;;1.40;;
50350;SDS011;36250;48.740;22.174;2022-09-09T16:20:13;1.55;;;1.45;;
50350;SDS011;36250;48.740;22.174;2022-09-09T16:22:39;2.92;;;1.33;;
50350;SDS011;36250;48.740;22.174;2022-09-09T16:25:05;1.27;;;1.27;;
50350;SDS011;36250;48.740;22.174;2022-09-09T16:27:31;1.67;;;1.58;;
50350;SDS011;36250;48.740;22.174;2022-09-09T16:29:56;2.17;;;1.40;;
50350;SDS011;36250;48.740;22.174;2022-09-09T16:32:22;6.13;;;1.67;;
50350;SDS011;36250;48.740;22.174;2022-09-09T16:34:47;3.47;;;1.70;;
50350;SDS011;36250;48.740;22.174;2022-09-09T16:37:13;2.08;;;1.75;;
50350;SDS011;36250;48.740;22.174;2022-09-09T16:39:38;3.70;;;1.38;;
50350;SDS011;36250;48.740;22.174;2022-09-09T16:42:03;1.63;;;1.52;;
50350;SDS011;36250;48.740;22.174;2022-09-09T16:44:29;1.73;;;1.30;;
50350;SDS011;36250;48.740;22.174;2022-09-09T16:46:55;1.60;;;1.50;;
50350;SDS011;36250;48.740;22.174;2022-09-09T16:49:21;2.50;;;1.40;;
50350;SDS011;36250;48.740;22.174;2022-09-09T16:51:47;2.00;;;1.90;;
50350;SDS011;36250;48.740;22.174;2022-09-09T16:54:14;1.85;;;1.65;;